createdAt,value
2022-08-09T00:02:30.304Z,99.90
2022-08-09T00:06:17.559Z,99.90
2022-08-09T00:08:32.186Z,99.90
2022-08-09T00:11:24.532Z,99.90
2022-08-09T00:14:21.828Z,99.90
2022-08-09T00:18:05.642Z,99.90
2022-08-09T00:20:23.070Z,99.90
2022-08-09T00:23:56.663Z,99.90
2022-08-09T00:26:19.292Z,99.90
2022-08-09T00:29:39.117Z,99.90
2022-08-09T00:32:26.572Z,99.90
2022-08-09T00:35:15.003Z,99.90
2022-08-09T00:38:03.293Z,99.90
2022-08-09T00:40:53.284Z,99.90
2022-08-09T00:44:14.882Z,99.90
2022-08-09T00:46:57.531Z,99.90
2022-08-09T00:49:55.012Z,99.90
2022-08-09T00:52:44.553Z,99.90
2022-08-09T00:56:03.634Z,99.90
2022-08-09T00:58:41.058Z,99.90
2022-08-09T01:01:44.650Z,99.90
2022-08-09T01:04:54.846Z,99.90
2022-08-09T01:08:29.993Z,99.90
2022-08-09T01:11:59.833Z,99.90
2022-08-09T01:15:16.965Z,99.90
2022-08-09T01:18:18.487Z,99.90
2022-08-09T01:22:05.822Z,99.90
2022-08-09T01:25:27.339Z,99.90
2022-08-09T01:28:16.154Z,99.90
2022-08-09T01:31:06.628Z,99.90
2022-08-09T01:34:00.393Z,99.90
2022-08-09T01:36:51.298Z,99.90
2022-08-09T01:39:41.485Z,99.90
2022-08-09T01:42:35.594Z,99.90
2022-08-09T01:45:25.370Z,99.90
2022-08-09T01:48:16.561Z,99.90
2022-08-09T01:51:05.414Z,99.90
2022-08-09T01:54:02.092Z,99.90
2022-08-09T01:56:56.804Z,99.90
2022-08-09T01:59:51.997Z,99.90
2022-08-09T02:02:46.779Z,99.90
2022-08-09T02:05:53.534Z,99.90
2022-08-09T02:08:59.021Z,99.90
2022-08-09T02:11:47.407Z,99.90
2022-08-09T02:14:40.058Z,99.90
2022-08-09T02:17:59.959Z,99.90
2022-08-09T02:20:49.432Z,99.90
2022-08-09T02:23:52.379Z,99.90
2022-08-09T02:26:43.889Z,99.90
2022-08-09T02:29:42.792Z,99.90
2022-08-09T02:32:34.061Z,99.90
2022-08-09T02:36:01.328Z,99.90
2022-08-09T02:38:47.792Z,99.90
2022-08-09T02:41:45.946Z,99.90
2022-08-09T02:45:01.980Z,99.90
2022-08-09T02:47:58.876Z,99.90
2022-08-09T02:50:56.550Z,99.90
2022-08-09T02:53:53.105Z,99.90
2022-08-09T02:56:56.910Z,99.90
2022-08-09T03:00:11.653Z,99.90
2022-08-09T03:03:00.195Z,99.90
2022-08-09T03:05:53.442Z,99.90
2022-08-09T03:08:49.144Z,99.90
2022-08-09T03:12:09.675Z,99.90
2022-08-09T03:14:49.957Z,99.90
2022-08-09T03:17:38.829Z,99.90
2022-08-09T03:20:29.868Z,99.90
2022-08-09T03:23:24.250Z,99.90
2022-08-09T03:26:21.554Z,99.90
2022-08-09T03:29:23.201Z,99.90
2022-08-09T03:32:12.083Z,99.90
2022-08-09T03:35:00.850Z,99.90
2022-08-09T03:37:55.472Z,99.90
2022-08-09T03:40:46.088Z,99.90
2022-08-09T03:43:34.434Z,99.90
2022-08-09T03:46:29.262Z,99.90
2022-08-09T03:49:21.332Z,99.90
2022-08-09T03:52:14.448Z,99.90
2022-08-09T03:55:09.896Z,99.90
2022-08-09T03:58:09.853Z,99.90
2022-08-09T04:01:04.314Z,99.90
2022-08-09T04:04:01.258Z,99.90
2022-08-09T04:06:50.019Z,99.90
2022-08-09T04:09:48.188Z,99.90
2022-08-09T04:12:52.228Z,99.90
2022-08-09T04:16:18.895Z,99.90
2022-08-09T04:18:49.207Z,99.90
2022-08-09T04:21:38.657Z,99.90
2022-08-09T04:24:28.368Z,99.90
2022-08-09T04:27:15.873Z,99.90
2022-08-09T04:30:03.833Z,99.90
2022-08-09T04:32:52.308Z,99.90
2022-08-09T04:35:42.510Z,99.90
2022-08-09T04:38:30.047Z,99.90
2022-08-09T04:41:17.581Z,99.90
2022-08-09T04:44:09.510Z,99.90
2022-08-09T04:47:05.680Z,99.90
2022-08-09T04:49:55.656Z,99.90
2022-08-09T04:52:43.648Z,99.90
2022-08-09T04:55:39.731Z,99.90
2022-08-09T04:58:39.947Z,99.90
2022-08-09T05:01:27.556Z,99.90
2022-08-09T05:04:15.281Z,99.90
2022-08-09T05:07:02.991Z,99.90
2022-08-09T05:09:50.528Z,99.90
2022-08-09T05:12:38.033Z,99.90
2022-08-09T05:15:39.150Z,99.90
2022-08-09T05:18:39.450Z,99.90
2022-08-09T05:21:47.145Z,99.90
2022-08-09T05:24:43.137Z,99.90
2022-08-09T05:27:35.212Z,99.90
2022-08-09T05:30:34.827Z,99.90
2022-08-09T05:33:26.465Z,99.90
2022-08-09T05:36:21.113Z,99.90
2022-08-09T05:39:14.052Z,99.90
2022-08-09T05:42:17.329Z,99.90
2022-08-09T05:45:09.689Z,99.90
2022-08-09T05:48:02.295Z,99.90
2022-08-09T05:50:51.274Z,99.90
2022-08-09T05:53:58.199Z,99.90
2022-08-09T05:56:55.191Z,99.90
2022-08-09T05:59:43.134Z,99.90
2022-08-09T06:02:32.794Z,99.90
2022-08-09T06:05:20.427Z,99.90
2022-08-09T06:08:24.573Z,99.90
2022-08-09T06:11:17.411Z,99.90
2022-08-09T06:14:05.507Z,99.90
2022-08-09T06:16:53.244Z,99.90
2022-08-09T06:19:41.031Z,99.90
2022-08-09T06:22:29.072Z,99.90
2022-08-09T06:25:17.448Z,99.90
2022-08-09T06:28:08.878Z,99.90
2022-08-09T06:30:56.345Z,99.90
2022-08-09T06:33:48.649Z,99.90
2022-08-09T06:36:43.871Z,99.90
2022-08-09T06:39:48.739Z,99.90
2022-08-09T06:42:45.152Z,99.90
2022-08-09T06:46:08.031Z,99.90
2022-08-09T06:48:43.113Z,99.90
2022-08-09T06:51:30.947Z,99.90
2022-08-09T06:54:18.652Z,99.90
2022-08-09T06:57:08.363Z,99.90
2022-08-09T07:00:49.457Z,99.90
2022-08-09T07:03:05.291Z,99.90
2022-08-09T07:06:04.461Z,99.90
2022-08-09T07:08:52.472Z,99.90
2022-08-09T07:11:51.978Z,99.90
2022-08-09T07:14:41.012Z,99.90
2022-08-09T07:17:28.742Z,99.90
2022-08-09T07:20:27.612Z,99.90
2022-08-09T07:23:19.071Z,99.90
2022-08-09T07:26:07.659Z,99.90
2022-08-09T07:29:07.895Z,99.90
2022-08-09T07:32:01.389Z,99.90
2022-08-09T07:34:48.958Z,99.90
2022-08-09T07:37:45.583Z,99.90
2022-08-09T07:41:00.417Z,99.90
2022-08-09T07:43:55.993Z,99.90
2022-08-09T07:46:44.270Z,99.90
2022-08-09T07:49:35.224Z,99.90
2022-08-09T07:52:43.104Z,99.90
2022-08-09T07:55:30.872Z,99.90
2022-08-09T07:58:38.445Z,99.90
2022-08-09T08:01:33.862Z,99.90
2022-08-09T08:04:31.748Z,99.90
2022-08-09T08:08:43.914Z,99.90
2022-08-09T08:10:28.038Z,99.90
2022-08-09T08:13:21.939Z,99.90
2022-08-09T08:16:29.519Z,99.90
2022-08-09T08:19:18.849Z,99.90
2022-08-09T08:22:09.067Z,99.90
2022-08-09T08:24:57.640Z,99.90
2022-08-09T08:27:45.210Z,99.90
2022-08-09T08:30:38.998Z,99.90
2022-08-09T08:33:40.672Z,99.90
2022-08-09T08:36:37.172Z,99.90
2022-08-09T08:39:27.753Z,99.90
2022-08-09T08:42:15.924Z,99.90
2022-08-09T08:45:11.662Z,99.90
2022-08-09T08:48:01.666Z,99.90
2022-08-09T08:50:53.116Z,99.90
2022-08-09T08:54:04.327Z,99.90
2022-08-09T08:56:49.028Z,99.90
2022-08-09T08:59:46.509Z,99.90
2022-08-09T09:02:36.096Z,99.90
2022-08-09T09:05:57.482Z,99.90
2022-08-09T09:08:40.318Z,99.90
2022-08-09T09:11:30.093Z,99.90
2022-08-09T09:14:27.033Z,99.90
2022-08-09T09:17:16.560Z,99.90
2022-08-09T09:20:15.482Z,98.90
2022-08-09T09:23:03.423Z,99.90
2022-08-09T09:26:05.035Z,99.40
2022-08-09T09:29:03.951Z,99.50
2022-08-09T09:32:05.867Z,99.70
2022-08-09T09:35:15.659Z,99.10
2022-08-09T09:38:03.832Z,99.10
2022-08-09T09:40:52.303Z,98.90
2022-08-09T09:44:10.205Z,99.60
2022-08-09T09:46:52.151Z,99.90
2022-08-09T09:50:14.354Z,99.90
2022-08-09T09:52:56.168Z,99.70
2022-08-09T09:56:04.079Z,98.90
2022-08-09T09:58:53.495Z,99.30
2022-08-09T10:01:43.278Z,99.90
2022-08-09T10:04:31.439Z,99.40
2022-08-09T10:07:26.379Z,99.70
2022-08-09T10:10:28.560Z,98.90
2022-08-09T10:13:23.779Z,98.20
2022-08-09T10:16:58.288Z,98.20
2022-08-09T10:19:43.556Z,98.90
2022-08-09T10:22:39.161Z,98.50
2022-08-09T10:25:34.779Z,99.00
2022-08-09T10:28:37.418Z,98.40
2022-08-09T10:32:35.790Z,98.00
2022-08-09T10:34:35.877Z,98.70
2022-08-09T10:37:24.797Z,98.10
2022-08-09T10:40:33.759Z,98.10
2022-08-09T10:43:22.618Z,98.30
2022-08-09T10:46:57.297Z,97.10
2022-08-09T10:51:00.443Z,97.40
2022-08-09T10:54:05.978Z,97.10
2022-08-09T10:57:16.774Z,97.70
2022-08-09T11:00:34.267Z,98.00
2022-08-09T11:03:50.024Z,98.80
2022-08-09T11:06:34.941Z,97.50
2022-08-09T11:09:47.789Z,96.80
2022-08-09T11:12:37.098Z,97.30
2022-08-09T11:15:33.558Z,96.80
2022-08-09T11:18:48.342Z,97.40
2022-08-09T11:22:16.582Z,97.30
2022-08-09T11:25:17.205Z,97.30
2022-08-09T11:28:34.403Z,97.50
2022-08-09T11:31:53.158Z,97.60
2022-08-09T11:34:52.301Z,97.40
2022-08-09T11:37:43.281Z,97.40
2022-08-09T11:40:37.496Z,97.30
2022-08-09T11:43:32.241Z,97.50
2022-08-09T11:46:26.845Z,96.40
2022-08-09T11:50:56.287Z,96.80
2022-08-09T11:53:21.455Z,96.30
2022-08-09T11:56:19.612Z,97.00
2022-08-09T11:59:09.772Z,96.90
2022-08-09T12:02:17.627Z,96.60
2022-08-09T12:05:07.068Z,96.30
2022-08-09T12:08:12.199Z,96.10
2022-08-09T12:11:01.501Z,96.10
2022-08-09T12:14:07.046Z,96.10
2022-08-09T12:16:58.331Z,96.20
2022-08-09T12:19:45.896Z,97.90
2022-08-09T12:22:38.638Z,97.00
2022-08-09T12:25:37.303Z,96.90
2022-08-09T12:29:15.303Z,96.40
2022-08-09T12:32:02.747Z,97.40
2022-08-09T12:34:43.826Z,98.00
2022-08-09T12:37:44.265Z,96.70
2022-08-09T12:40:51.756Z,98.10
2022-08-09T12:44:06.115Z,98.00
2022-08-09T12:46:50.235Z,97.60
2022-08-09T12:49:39.312Z,96.80
2022-08-09T12:53:08.472Z,96.90
2022-08-09T12:56:14.860Z,97.00
2022-08-09T12:59:11.922Z,96.60
2022-08-09T13:02:07.183Z,95.90
2022-08-09T13:05:02.611Z,95.70
2022-08-09T13:08:40.442Z,96.70
2022-08-09T13:11:35.033Z,96.50
2022-08-09T13:14:40.808Z,96.40
2022-08-09T13:18:03.780Z,95.10
2022-08-09T13:21:04.250Z,95.80
2022-08-09T13:24:15.994Z,95.30
2022-08-09T13:26:54.347Z,96.80
2022-08-09T13:30:51.141Z,96.80
2022-08-09T13:33:52.492Z,96.50
2022-08-09T13:36:41.051Z,96.60
2022-08-09T13:41:46.925Z,94.70
2022-08-09T13:42:39.164Z,95.10
2022-08-09T13:45:32.604Z,97.00
2022-08-09T13:48:35.667Z,94.80
2022-08-09T13:51:23.527Z,95.20
2022-08-09T13:54:15.151Z,95.10
2022-08-09T13:57:06.420Z,94.70
2022-08-09T13:59:54.448Z,95.20
2022-08-09T14:03:03.092Z,95.30
2022-08-09T14:06:02.660Z,95.80
2022-08-09T14:08:51.460Z,95.00
2022-08-09T14:11:47.120Z,96.30
2022-08-09T14:14:35.534Z,97.70
2022-08-09T14:17:23.136Z,95.00
2022-08-09T14:20:11.767Z,94.60
2022-08-09T14:23:03.578Z,96.20
2022-08-09T14:25:52.258Z,94.90
2022-08-09T14:28:40.942Z,95.10
2022-08-09T14:31:35.789Z,95.40
2022-08-09T14:34:36.823Z,95.50
2022-08-09T14:38:01.564Z,94.80
2022-08-09T14:41:00.432Z,95.70
2022-08-09T14:43:47.489Z,94.50
2022-08-09T14:47:01.507Z,95.10
2022-08-09T14:50:01.622Z,95.00
2022-08-09T14:52:51.052Z,95.30
2022-08-09T14:55:38.641Z,95.60
2022-08-09T14:58:30.736Z,95.90
2022-08-09T15:01:19.943Z,96.40
2022-08-09T15:04:08.193Z,95.10
2022-08-09T15:06:57.513Z,97.40
2022-08-09T15:10:07.849Z,95.80
2022-08-09T15:12:54.485Z,95.40
2022-08-09T15:15:43.849Z,95.40
2022-08-09T15:18:31.424Z,94.40
2022-08-09T15:22:00.693Z,94.60
2022-08-09T15:24:27.966Z,94.70
2022-08-09T15:27:15.992Z,94.70
2022-08-09T15:30:56.931Z,95.20
2022-08-09T15:33:15.139Z,95.40
2022-08-09T15:36:15.728Z,96.20
2022-08-09T15:39:03.629Z,95.20
2022-08-09T15:41:51.762Z,94.70
2022-08-09T15:44:41.960Z,95.50
2022-08-09T15:47:51.620Z,96.20
2022-08-09T15:50:39.546Z,95.30
2022-08-09T15:54:03.831Z,95.80
2022-08-09T15:56:39.382Z,95.00
2022-08-09T15:59:26.932Z,94.50
2022-08-09T16:02:27.427Z,94.90
2022-08-09T16:05:18.729Z,94.20
2022-08-09T16:08:09.537Z,94.20
2022-08-09T16:11:16.999Z,94.40
2022-08-09T16:14:07.879Z,95.40
2022-08-09T16:16:58.667Z,95.10
2022-08-09T16:19:49.429Z,95.40
2022-08-09T16:22:51.827Z,95.40
2022-08-09T16:25:40.501Z,95.40
2022-08-09T16:28:28.488Z,95.40
2022-08-09T16:31:16.432Z,95.80
2022-08-09T16:34:04.999Z,95.70
2022-08-09T16:36:56.618Z,95.60
2022-08-09T16:39:54.563Z,96.10
2022-08-09T16:42:52.029Z,96.40
2022-08-09T16:45:44.415Z,96.10
2022-08-09T16:48:38.346Z,96.60
2022-08-09T16:51:31.069Z,96.50
2022-08-09T16:54:26.295Z,97.20
2022-08-09T16:57:21.998Z,97.90
2022-08-09T17:00:14.012Z,97.30
2022-08-09T17:03:02.337Z,97.10
2022-08-09T17:06:08.497Z,97.40
2022-08-09T17:09:16.251Z,99.20
2022-08-09T17:12:11.611Z,99.20
2022-08-09T17:14:59.244Z,96.30
2022-08-09T17:17:50.636Z,95.80
2022-08-09T17:20:46.489Z,95.50
2022-08-09T17:24:27.628Z,94.90
2022-08-09T17:26:52.014Z,97.80
2022-08-09T17:29:45.646Z,98.90
2022-08-09T17:32:34.999Z,99.20
2022-08-09T17:35:26.218Z,99.40
2022-08-09T17:38:31.026Z,99.90
2022-08-09T17:41:21.251Z,99.90
2022-08-09T17:44:42.250Z,99.90
2022-08-09T17:47:20.754Z,99.90
2022-08-09T17:50:17.113Z,99.90
2022-08-09T17:53:22.301Z,99.90
2022-08-09T17:56:10.297Z,99.90
2022-08-09T17:59:03.239Z,99.90
2022-08-09T18:02:06.709Z,99.90
2022-08-09T18:05:00.202Z,99.50
2022-08-09T18:07:48.895Z,99.10
2022-08-09T18:10:37.853Z,98.80
2022-08-09T18:13:38.729Z,99.00
2022-08-09T18:16:33.472Z,98.90
2022-08-09T18:20:59.880Z,98.80
2022-08-09T18:22:33.735Z,98.80
2022-08-09T18:25:50.769Z,99.90
2022-08-09T18:30:40.183Z,99.90
2022-08-09T18:31:56.031Z,99.90
2022-08-09T18:34:44.236Z,99.90
2022-08-09T18:37:48.767Z,99.90
2022-08-09T18:40:40.339Z,99.90
2022-08-09T18:43:28.488Z,99.90
2022-08-09T18:46:50.911Z,99.90
2022-08-09T18:49:32.110Z,99.90
2022-08-09T18:52:34.892Z,99.90
2022-08-09T18:55:45.542Z,99.90
2022-08-09T18:58:32.907Z,99.90
2022-08-09T19:01:20.700Z,99.90
2022-08-09T19:04:09.193Z,99.90
2022-08-09T19:06:56.691Z,99.90
2022-08-09T19:10:13.868Z,99.90
2022-08-09T19:12:55.386Z,99.90
2022-08-09T19:15:49.152Z,99.90
2022-08-09T19:18:40.937Z,99.90
2022-08-09T19:21:36.306Z,99.90
2022-08-09T19:25:09.038Z,99.90
2022-08-09T19:27:48.483Z,99.90
2022-08-09T19:30:44.333Z,99.90
2022-08-09T19:33:32.362Z,99.90
2022-08-09T19:36:23.522Z,99.90
2022-08-09T19:39:20.745Z,99.90
2022-08-09T19:42:19.753Z,99.90
2022-08-09T19:45:11.814Z,99.90
2022-08-09T19:48:00.480Z,99.90
2022-08-09T19:50:54.148Z,99.90
2022-08-09T19:53:46.949Z,99.90
2022-08-09T19:56:36.897Z,99.90
2022-08-09T19:59:59.639Z,99.90
2022-08-09T20:04:12.207Z,99.90
2022-08-09T20:05:46.858Z,99.90
2022-08-09T20:08:38.767Z,99.90
2022-08-09T20:11:42.861Z,99.90
2022-08-09T20:14:37.272Z,99.90
2022-08-09T20:17:41.653Z,99.90
2022-08-09T20:20:37.658Z,99.90
2022-08-09T20:23:39.042Z,99.90
2022-08-09T20:26:27.948Z,99.90
2022-08-09T20:29:18.868Z,99.90
2022-08-09T20:32:30.461Z,99.90
2022-08-09T20:35:21.979Z,99.90
2022-08-09T20:38:23.489Z,99.90
2022-08-09T20:41:17.677Z,99.90
2022-08-09T20:44:10.420Z,99.90
2022-08-09T20:46:58.263Z,99.90
2022-08-09T20:49:46.777Z,99.90
2022-08-09T20:52:38.192Z,99.90
2022-08-09T20:55:27.433Z,99.90
2022-08-09T20:58:20.194Z,99.90
2022-08-09T21:01:32.868Z,99.90
2022-08-09T21:05:56.926Z,99.90
2022-08-09T21:07:38.485Z,99.90
2022-08-09T21:10:30.610Z,99.90
2022-08-09T21:13:18.371Z,99.90
2022-08-09T21:16:19.412Z,99.90
2022-08-09T21:20:04.556Z,99.90
2022-08-09T21:22:23.452Z,99.90
2022-08-09T21:25:44.441Z,99.90
2022-08-09T21:28:51.853Z,99.90
2022-08-09T21:31:49.422Z,99.90
2022-08-09T21:34:37.320Z,99.90
2022-08-09T21:37:47.166Z,99.90
2022-08-09T21:40:44.522Z,99.90
2022-08-09T21:43:56.149Z,99.90
2022-08-09T21:46:45.094Z,99.90
2022-08-09T21:49:39.638Z,99.90
2022-08-09T21:52:30.458Z,99.90
2022-08-09T21:55:18.138Z,99.90
2022-08-09T21:58:06.745Z,99.90
2022-08-09T22:01:01.492Z,99.90
2022-08-09T22:03:59.464Z,99.90
2022-08-09T22:06:59.048Z,99.90
2022-08-09T22:09:49.513Z,99.90
2022-08-09T22:12:38.198Z,99.90
2022-08-09T22:15:33.438Z,99.90
2022-08-09T22:18:24.014Z,99.90
2022-08-09T22:21:22.234Z,99.90
2022-08-09T22:24:16.991Z,99.90
2022-08-09T22:27:08.582Z,99.90
2022-08-09T22:29:57.617Z,99.90
2022-08-09T22:32:45.130Z,99.90
2022-08-09T22:36:00.876Z,99.90
2022-08-09T22:38:40.308Z,99.90
2022-08-09T22:41:31.403Z,99.90
2022-08-09T22:44:22.108Z,99.90
2022-08-09T22:48:14.262Z,99.90
2022-08-09T22:50:17.319Z,99.90
2022-08-09T22:53:04.984Z,99.90
2022-08-09T22:56:30.313Z,99.90
2022-08-09T22:59:01.115Z,99.90
2022-08-09T23:01:54.148Z,99.90
2022-08-09T23:04:41.987Z,99.90
2022-08-09T23:08:27.618Z,99.90
2022-08-09T23:10:55.817Z,99.90
2022-08-09T23:13:48.808Z,99.90
2022-08-09T23:16:36.363Z,99.90
2022-08-09T23:19:24.212Z,99.90
2022-08-09T23:22:11.762Z,99.90
2022-08-09T23:24:59.329Z,99.90
2022-08-09T23:28:11.625Z,99.90
2022-08-09T23:30:55.364Z,99.90
2022-08-09T23:33:42.849Z,99.90
2022-08-09T23:36:30.397Z,99.90
2022-08-09T23:39:17.951Z,99.90
2022-08-09T23:42:06.618Z,99.90
2022-08-09T23:44:54.128Z,99.90
2022-08-09T23:47:41.733Z,99.90
2022-08-09T23:50:29.260Z,99.90
2022-08-09T23:53:16.823Z,99.90
2022-08-09T23:56:04.697Z,99.90
2022-08-09T23:58:54.518Z,99.90
